Lamartine, Pennsylvania
Current Conditions -  °F | °C
As of 2:15 PM on Saturday 25 Oct 2014 (Local Time) from KFKL Reporting Station
Overcast Overcast  
Wind Chill: 63°   Ceiling: 3800
Heat Index: 63°   Visibility: 10mi
Dew Point: 48°   Wind: 14mph
Humidity: 59%   Direction: 220°SW
Pressure: 29.78"   Gusts: 25mph
Location:  41.22°N, 79.63°W
Report Text: KFKL 251815Z 22012G22KT 10SM OVC038 17/09 A2978 RMK AO1
Loading
Personal Weather Stations






























Interactive Weather Map
Tropical Storm Tracking
New forecast layout! Learn more

10-Day Weather Forecast

Advertisements
Track Severe Weather on mobile